createdAt,value
2023-01-03T00:02:10.376Z,145256.03
2023-01-03T00:04:37.451Z,145290.00
2023-01-03T00:07:04.339Z,145264.50
2023-01-03T00:09:31.175Z,145237.81
2023-01-03T00:12:16.474Z,145246.25
2023-01-03T00:14:43.964Z,145269.34
2023-01-03T00:17:12.064Z,145282.72
2023-01-03T00:19:40.541Z,145239.00
2023-01-03T00:22:07.898Z,145223.19
2023-01-03T00:24:34.764Z,145288.81
2023-01-03T00:27:01.917Z,145245.06
2023-01-03T00:29:28.733Z,145231.69
2023-01-03T00:31:55.721Z,145224.44
2023-01-03T00:34:22.560Z,145240.19
2023-01-03T00:36:49.376Z,145218.34
2023-01-03T00:39:16.175Z,145229.28
2023-01-03T00:41:43.228Z,145217.16
2023-01-03T00:44:11.939Z,145212.28
2023-01-03T00:46:39.202Z,145228.06
2023-01-03T00:49:07.349Z,145218.34
2023-01-03T00:51:35.632Z,145192.91
2023-01-03T00:54:03.427Z,145166.19
2023-01-03T00:56:40.581Z,145223.19
2023-01-03T00:59:08.147Z,145198.94
2023-01-03T01:01:45.839Z,145168.59
2023-01-03T01:04:15.083Z,145166.19
2023-01-03T01:06:43.268Z,145126.16
2023-01-03T01:09:11.882Z,145143.16
2023-01-03T01:11:41.084Z,145148.00
2023-01-03T01:14:19.758Z,145141.91
2023-01-03T01:16:48.000Z,145155.25
2023-01-03T01:19:15.573Z,145138.31
2023-01-03T01:21:42.811Z,145152.84
2023-01-03T01:24:12.881Z,145118.84
2023-01-03T01:26:44.650Z,145150.41
2023-01-03T01:29:12.342Z,145138.31
2023-01-03T01:31:40.594Z,145111.59
2023-01-03T01:34:07.972Z,145160.09
2023-01-03T01:36:39.524Z,145139.50
2023-01-03T01:39:07.844Z,145165.00
2023-01-03T01:41:54.188Z,145129.81
2023-01-03T01:44:40.384Z,145123.69
2023-01-03T01:47:11.559Z,145120.09
2023-01-03T01:49:38.401Z,145111.59
2023-01-03T01:52:06.190Z,145117.66
2023-01-03T01:54:33.836Z,145117.66
2023-01-03T01:57:00.680Z,145120.09
2023-01-03T01:59:28.364Z,145133.44
2023-01-03T02:01:55.725Z,145123.69
2023-01-03T02:04:30.842Z,145135.84
2023-01-03T02:06:57.841Z,145128.59
2023-01-03T02:09:24.692Z,145123.69
2023-01-03T02:12:18.191Z,145124.94
2023-01-03T02:14:54.217Z,145126.16
2023-01-03T02:17:30.545Z,145126.16
2023-01-03T02:20:10.080Z,145165.00
2023-01-03T02:22:55.566Z,145121.31
2023-01-03T02:25:38.838Z,145118.84
2023-01-03T02:28:08.443Z,145120.09
2023-01-03T02:30:35.265Z,145084.91
2023-01-03T02:33:20.923Z,145106.75
2023-01-03T02:35:59.698Z,145089.75
2023-01-03T02:38:35.140Z,145120.09
2023-01-03T02:41:20.537Z,145128.59
2023-01-03T02:43:50.078Z,145190.44
2023-01-03T02:46:23.698Z,145150.41
2023-01-03T02:49:00.929Z,145150.41
2023-01-03T02:51:32.547Z,145135.84
2023-01-03T02:54:00.671Z,145135.84
2023-01-03T02:56:30.433Z,145207.44
2023-01-03T02:59:00.267Z,145201.41
2023-01-03T03:01:29.152Z,145172.25
2023-01-03T03:03:56.859Z,145162.53
2023-01-03T03:06:30.940Z,145174.69
2023-01-03T03:08:58.284Z,145214.69
2023-01-03T03:11:46.528Z,145201.41
2023-01-03T03:14:17.795Z,145211.09
2023-01-03T03:16:47.805Z,145174.69
2023-01-03T03:19:39.740Z,145155.25
2023-01-03T03:22:45.741Z,145151.66
2023-01-03T03:25:25.343Z,145145.56
2023-01-03T03:28:14.738Z,145162.53
2023-01-03T03:30:43.087Z,145148.00
2023-01-03T03:33:12.648Z,145134.66
2023-01-03T03:35:44.231Z,145189.25
2023-01-03T03:38:13.358Z,145162.53
2023-01-03T03:41:04.150Z,145194.09
2023-01-03T03:43:52.397Z,145196.50
2023-01-03T03:46:23.086Z,145177.09
2023-01-03T03:49:27.042Z,145211.09
2023-01-03T03:51:56.155Z,145189.25
2023-01-03T03:54:23.951Z,145160.09
2023-01-03T03:56:54.623Z,145145.56
2023-01-03T03:59:23.825Z,145116.44
2023-01-03T04:01:51.176Z,145145.56
2023-01-03T04:04:24.578Z,145126.16
2023-01-03T04:06:52.247Z,145105.50
2023-01-03T04:09:19.506Z,145109.16
2023-01-03T04:11:46.445Z,145112.81
2023-01-03T04:14:13.282Z,145145.56
2023-01-03T04:16:41.174Z,145124.94
2023-01-03T04:19:08.459Z,145103.09
2023-01-03T04:21:36.595Z,145092.22
2023-01-03T04:24:06.822Z,145074.00
2023-01-03T04:26:33.629Z,145057.03
2023-01-03T04:29:00.411Z,145046.06
2023-01-03T04:31:27.519Z,145031.53
2023-01-03T04:33:54.397Z,145031.53
2023-01-03T04:36:21.360Z,145038.81
2023-01-03T04:38:48.194Z,145036.38
2023-01-03T04:41:15.034Z,145038.81
2023-01-03T04:44:00.316Z,145041.22
2023-01-03T04:46:27.964Z,145041.22
2023-01-03T04:48:54.862Z,145043.69
2023-01-03T04:51:21.748Z,145041.22
2023-01-03T04:53:48.585Z,145053.38
2023-01-03T04:56:15.526Z,145053.38
2023-01-03T04:58:42.975Z,145046.06
2023-01-03T05:01:10.713Z,144821.81
2023-01-03T05:03:38.095Z,145037.63
2023-01-03T05:06:07.025Z,145037.63
2023-01-03T05:08:35.231Z,145038.81
2023-01-03T05:11:02.331Z,145031.53
2023-01-03T05:13:29.141Z,145032.72
2023-01-03T05:15:55.951Z,145041.22
2023-01-03T05:18:22.967Z,145043.69
2023-01-03T05:21:08.590Z,145041.22
2023-01-03T05:23:54.236Z,145025.47
2023-01-03T05:26:21.707Z,145019.44
2023-01-03T05:28:50.753Z,144997.59
2023-01-03T05:31:17.781Z,144990.31
2023-01-03T05:33:44.766Z,144987.91
2023-01-03T05:36:11.651Z,144980.59
2023-01-03T05:38:38.548Z,144984.25
2023-01-03T05:41:05.872Z,144996.34
2023-01-03T05:43:32.933Z,144983.06
2023-01-03T05:46:00.097Z,145000.00
2023-01-03T05:48:27.226Z,145007.28
2023-01-03T05:50:55.900Z,145002.44
2023-01-03T05:53:22.748Z,145003.66
2023-01-03T05:55:49.589Z,145007.28
2023-01-03T05:58:16.394Z,145009.69
2023-01-03T06:00:43.447Z,145002.44
2023-01-03T06:03:10.391Z,145002.44
2023-01-03T06:05:37.269Z,144993.94
2023-01-03T06:08:04.155Z,144990.31
2023-01-03T06:10:30.981Z,144992.75
2023-01-03T06:12:58.100Z,144991.50
2023-01-03T06:15:24.998Z,144984.25
2023-01-03T06:17:54.791Z,144987.91
2023-01-03T06:20:21.716Z,144983.06
2023-01-03T06:22:48.700Z,144970.91
2023-01-03T06:25:15.574Z,144958.78
2023-01-03T06:27:42.409Z,144961.22
2023-01-03T06:30:09.710Z,144952.72
2023-01-03T06:32:36.715Z,144946.69
2023-01-03T06:35:03.846Z,144945.44
2023-01-03T06:37:30.688Z,144944.22
2023-01-03T06:39:57.501Z,144943.03
2023-01-03T06:42:43.300Z,144939.38
2023-01-03T06:45:29.883Z,144934.53
2023-01-03T06:48:15.484Z,144927.25
2023-01-03T06:51:01.473Z,144922.41
2023-01-03T06:53:32.010Z,144915.16
2023-01-03T06:55:59.308Z,144895.72
2023-01-03T06:58:26.247Z,144886.03
2023-01-03T07:00:53.386Z,144877.53
2023-01-03T07:03:20.593Z,144854.50
2023-01-03T07:05:47.510Z,144853.31
2023-01-03T07:08:14.330Z,144846.03
2023-01-03T07:10:41.229Z,144839.97
2023-01-03T07:13:26.985Z,144827.84
2023-01-03T07:15:53.951Z,144821.81
2023-01-03T07:18:20.977Z,144806.06
2023-01-03T07:20:47.812Z,144791.47
2023-01-03T07:23:14.795Z,144776.94
2023-01-03T07:25:41.789Z,144732.13
2023-01-03T07:28:12.384Z,144757.56
2023-01-03T07:30:39.877Z,144713.94
2023-01-03T07:33:07.563Z,144698.22
2023-01-03T07:35:35.441Z,144697.00
2023-01-03T07:38:05.021Z,144704.25
2023-01-03T07:40:32.196Z,144703.06
2023-01-03T07:43:17.891Z,144667.88
2023-01-03T07:45:45.454Z,144660.63
2023-01-03T07:48:12.562Z,144637.59
2023-01-03T07:50:39.640Z,144631.53
2023-01-03T07:53:07.823Z,144617.00
2023-01-03T07:55:35.770Z,144612.16
2023-01-03T07:58:02.723Z,144590.34
2023-01-03T08:00:29.538Z,144595.19
2023-01-03T08:02:56.679Z,144577.03
2023-01-03T08:05:24.117Z,144575.81
2023-01-03T08:07:51.756Z,144573.38
2023-01-03T08:10:37.786Z,144574.63
2023-01-03T08:13:17.424Z,144575.81
2023-01-03T08:15:45.663Z,144607.31
2023-01-03T08:18:12.632Z,144589.16
2023-01-03T08:20:39.721Z,144653.34
2023-01-03T08:23:06.612Z,144626.69
2023-01-03T08:25:33.466Z,144658.19
2023-01-03T08:28:00.957Z,144648.50
2023-01-03T08:30:29.793Z,144641.22
2023-01-03T08:32:59.112Z,144655.78
2023-01-03T08:35:28.334Z,144670.34
2023-01-03T08:37:55.357Z,144726.06
2023-01-03T08:40:22.265Z,144730.91
2023-01-03T08:42:49.203Z,144750.28
2023-01-03T08:45:17.622Z,144789.09
2023-01-03T08:47:45.537Z,144806.06
2023-01-03T08:50:12.476Z,144808.47
2023-01-03T08:52:42.446Z,144791.47
2023-01-03T08:55:09.603Z,144820.59
2023-01-03T08:57:36.756Z,144808.47
2023-01-03T09:00:05.603Z,144802.41
2023-01-03T09:02:36.558Z,144813.31
2023-01-03T09:05:03.918Z,144809.66
2023-01-03T09:07:30.728Z,144812.09
2023-01-03T09:09:57.551Z,144848.47
2023-01-03T09:12:24.359Z,144839.97
2023-01-03T09:14:51.158Z,144859.34
2023-01-03T09:17:18.066Z,144869.06
2023-01-03T09:19:45.117Z,144882.38
2023-01-03T09:22:11.917Z,144860.59
2023-01-03T09:24:38.819Z,144844.81
2023-01-03T09:27:05.652Z,144865.44
2023-01-03T09:29:32.458Z,144844.81
2023-01-03T09:32:03.137Z,144864.22
2023-01-03T09:34:30.119Z,144878.78
2023-01-03T09:36:57.099Z,144951.53
2023-01-03T09:39:23.908Z,145017.00
2023-01-03T09:42:10.743Z,145089.75
2023-01-03T09:44:38.609Z,145126.16
2023-01-03T09:47:05.627Z,145165.00
2023-01-03T09:49:34.305Z,145225.66
2023-01-03T09:52:19.884Z,145269.34
2023-01-03T09:55:05.517Z,145274.25
2023-01-03T09:57:53.512Z,145305.78
2023-01-03T10:00:48.283Z,145313.06
2023-01-03T10:03:51.159Z,145315.50
2023-01-03T10:06:24.954Z,145373.75
2023-01-03T10:09:05.715Z,145368.91
2023-01-03T10:12:08.008Z,145212.28
2023-01-03T10:14:45.480Z,145361.63
2023-01-03T10:17:12.365Z,145308.22
2023-01-03T10:19:41.952Z,145323.97
2023-01-03T10:22:10.483Z,145356.78
2023-01-03T10:24:47.585Z,145373.75
2023-01-03T10:27:22.221Z,145383.50
2023-01-03T10:29:51.911Z,145368.91
2023-01-03T10:32:26.703Z,145507.34
2023-01-03T10:35:12.320Z,145453.91
2023-01-03T10:37:42.300Z,145458.75
2023-01-03T10:40:09.719Z,145443.00
2023-01-03T10:42:36.597Z,145462.41
2023-01-03T10:45:10.116Z,145497.63
2023-01-03T10:47:36.971Z,145512.19
2023-01-03T10:50:05.212Z,145470.91
2023-01-03T10:52:38.277Z,145495.19
2023-01-03T10:55:31.510Z,145523.13
2023-01-03T10:57:59.843Z,145507.34
2023-01-03T11:00:37.184Z,145504.91
2023-01-03T11:03:11.178Z,145565.66
2023-01-03T11:05:38.994Z,145568.06
2023-01-03T11:08:13.380Z,145585.09
2023-01-03T11:10:49.228Z,145575.38
2023-01-03T11:13:21.446Z,145571.72
2023-01-03T11:15:52.966Z,145541.34
2023-01-03T11:18:22.813Z,145514.59
2023-01-03T11:20:49.768Z,145546.19
2023-01-03T11:23:19.726Z,145555.91
2023-01-03T11:26:02.654Z,145530.41
2023-01-03T11:28:48.159Z,145565.66
2023-01-03T11:31:20.967Z,145548.66
2023-01-03T11:33:57.189Z,145555.91
2023-01-03T11:36:34.139Z,145558.34
2023-01-03T11:39:12.775Z,145565.66
2023-01-03T11:41:41.726Z,145575.38
2023-01-03T11:44:08.560Z,145591.13
2023-01-03T11:46:42.883Z,145540.13
2023-01-03T11:49:27.618Z,145542.53
2023-01-03T11:52:09.770Z,145535.28
2023-01-03T11:54:36.591Z,145531.63
2023-01-03T11:57:09.900Z,145512.19
2023-01-03T11:59:37.017Z,145529.22
2023-01-03T12:02:22.620Z,145546.19
2023-01-03T12:05:06.192Z,145558.34
2023-01-03T12:07:47.722Z,145575.38
2023-01-03T12:10:29.891Z,145526.78
2023-01-03T12:13:29.137Z,145494.00
2023-01-03T12:15:56.646Z,145483.03
2023-01-03T12:18:29.779Z,145504.91
2023-01-03T12:20:59.341Z,145486.69
2023-01-03T12:23:29.168Z,145490.34
2023-01-03T12:26:02.387Z,145500.03
2023-01-03T12:28:32.872Z,145524.31
2023-01-03T12:31:09.607Z,145523.13
2023-01-03T12:33:46.431Z,145541.34
2023-01-03T12:36:25.255Z,145572.91
2023-01-03T12:38:59.629Z,145593.59
2023-01-03T12:41:26.434Z,145616.69
2023-01-03T12:44:22.540Z,145628.78
2023-01-03T12:46:51.222Z,145645.81
2023-01-03T12:49:23.337Z,145643.41
2023-01-03T12:51:50.162Z,145628.78
2023-01-03T12:54:25.224Z,145599.66
2023-01-03T12:56:52.079Z,145594.78
2023-01-03T12:59:44.671Z,145592.34
2023-01-03T13:02:44.096Z,145616.69
2023-01-03T13:05:16.748Z,145636.09
2023-01-03T13:07:48.639Z,145621.53
2023-01-03T13:10:17.650Z,145631.25
2023-01-03T13:12:46.987Z,145621.53
2023-01-03T13:15:23.051Z,145638.56
2023-01-03T13:17:50.024Z,145585.09
2023-01-03T13:20:28.071Z,145604.50
2023-01-03T13:22:58.784Z,145555.91
2023-01-03T13:25:34.512Z,145555.91
2023-01-03T13:28:19.378Z,145565.66
2023-01-03T13:30:46.637Z,145616.69
2023-01-03T13:33:16.465Z,145483.03
2023-01-03T13:35:46.257Z,145645.81
2023-01-03T13:38:31.661Z,145689.56
2023-01-03T13:43:49.921Z,145711.50
2023-01-03T13:46:25.907Z,145675.00
2023-01-03T13:48:55.203Z,145677.41
2023-01-03T13:51:21.994Z,145640.97
2023-01-03T13:53:53.373Z,145636.09
2023-01-03T13:56:22.685Z,145608.16
2023-01-03T13:58:51.468Z,145598.44
2023-01-03T14:01:26.154Z,145587.50
2023-01-03T14:04:12.818Z,145621.53
2023-01-03T14:06:46.135Z,145564.41
2023-01-03T14:09:24.367Z,145568.06
2023-01-03T14:12:10.200Z,145609.38
2023-01-03T14:14:39.400Z,145580.22
2023-01-03T14:17:14.836Z,145565.66
2023-01-03T14:19:47.954Z,145570.50
2023-01-03T14:22:33.228Z,145555.91
2023-01-03T14:25:00.226Z,145548.66
2023-01-03T14:27:37.785Z,145534.06
2023-01-03T14:30:19.030Z,145504.91
2023-01-03T14:32:46.022Z,145473.31
2023-01-03T14:35:32.525Z,145476.97
2023-01-03T14:38:04.710Z,145470.91
2023-01-03T14:40:33.462Z,145470.91
2023-01-03T14:43:03.391Z,145490.34
2023-01-03T14:45:30.244Z,145475.78
2023-01-03T14:47:57.188Z,145451.44
2023-01-03T14:50:28.373Z,145468.47
2023-01-03T14:52:56.715Z,145464.81
2023-01-03T14:55:27.227Z,145447.84
2023-01-03T14:57:54.608Z,145388.34
2023-01-03T15:00:31.856Z,145382.25
2023-01-03T15:02:59.985Z,145402.91
2023-01-03T15:05:29.531Z,145368.91
2023-01-03T15:08:10.141Z,145364.03
2023-01-03T15:10:43.409Z,145393.22
2023-01-03T15:13:22.147Z,145394.41
2023-01-03T15:15:53.536Z,145375.00
2023-01-03T15:18:21.621Z,145370.16
2023-01-03T15:20:50.603Z,145359.19
2023-01-03T15:23:25.797Z,145337.31
2023-01-03T15:25:53.108Z,145349.47
2023-01-03T15:28:24.092Z,145334.94
2023-01-03T15:30:51.560Z,145347.09
2023-01-03T15:33:21.089Z,145321.56
2023-01-03T15:35:50.369Z,145310.66
2023-01-03T15:38:20.256Z,145286.34
2023-01-03T15:40:48.929Z,145290.00
2023-01-03T15:43:21.780Z,145259.66
2023-01-03T15:46:03.272Z,145270.59
2023-01-03T15:48:31.624Z,145236.56
2023-01-03T15:50:59.521Z,145215.94
2023-01-03T15:53:47.677Z,145191.66
2023-01-03T15:56:19.267Z,145145.56
2023-01-03T15:58:50.375Z,145152.84
2023-01-03T16:01:18.242Z,145162.53
2023-01-03T16:03:46.364Z,145116.44
2023-01-03T16:06:13.337Z,145118.84
2023-01-03T16:08:40.603Z,145106.75
2023-01-03T16:11:15.624Z,145090.97
2023-01-03T16:13:49.179Z,145095.81
2023-01-03T16:16:19.251Z,145089.75
2023-01-03T16:18:46.335Z,145069.13
2023-01-03T16:21:13.523Z,145063.06
2023-01-03T16:23:40.829Z,145092.22
2023-01-03T16:26:08.108Z,145092.22
2023-01-03T16:28:35.367Z,145090.97
2023-01-03T16:31:04.153Z,145094.59
2023-01-03T16:33:35.039Z,145087.31
2023-01-03T16:36:02.373Z,145087.31
2023-01-03T16:38:30.614Z,145070.38
2023-01-03T16:40:57.634Z,145074.00
2023-01-03T16:43:25.653Z,145070.38
2023-01-03T16:45:54.311Z,145048.53
2023-01-03T16:48:23.184Z,145031.53
2023-01-03T16:50:51.940Z,145031.53
2023-01-03T16:53:24.556Z,145038.81
2023-01-03T16:55:54.565Z,145036.38
2023-01-03T16:58:23.827Z,145031.53
2023-01-03T17:00:51.126Z,145033.97
2023-01-03T17:03:18.323Z,145014.53
2023-01-03T17:05:45.811Z,144980.59
2023-01-03T17:08:18.232Z,144959.97
2023-01-03T17:10:46.805Z,144939.38
2023-01-03T17:13:26.218Z,144920.00
2023-01-03T17:15:53.803Z,144905.41
2023-01-03T17:18:21.967Z,144904.22
2023-01-03T17:21:00.119Z,144882.38
2023-01-03T17:23:28.236Z,144881.19
2023-01-03T17:25:55.561Z,144864.22
2023-01-03T17:28:22.528Z,144856.97
2023-01-03T17:30:51.115Z,144849.66
2023-01-03T17:33:18.126Z,144856.97
2023-01-03T17:35:46.034Z,144842.41
2023-01-03T17:38:25.761Z,144830.28
2023-01-03T17:40:55.192Z,144827.84
2023-01-03T17:43:23.808Z,144821.81
2023-01-03T17:46:13.185Z,144824.25
2023-01-03T17:49:01.802Z,144796.31
2023-01-03T17:51:28.659Z,144821.81
2023-01-03T17:53:55.734Z,144791.47
2023-01-03T17:56:22.604Z,144781.78
2023-01-03T17:58:56.023Z,144769.72
2023-01-03T18:01:23.515Z,144785.44
2023-01-03T18:03:50.704Z,144797.56
2023-01-03T18:06:19.977Z,144784.25
2023-01-03T18:08:47.684Z,144769.72
2023-01-03T18:11:16.168Z,144772.09
2023-01-03T18:13:43.677Z,144772.09
2023-01-03T18:16:18.724Z,144772.09
2023-01-03T18:18:45.806Z,144761.22
2023-01-03T18:21:17.638Z,144750.28
2023-01-03T18:23:45.113Z,144755.13
2023-01-03T18:26:14.478Z,144757.56
2023-01-03T18:28:41.920Z,144759.97
2023-01-03T18:31:16.849Z,144766.06
2023-01-03T18:33:43.828Z,144791.47
2023-01-03T18:36:17.051Z,144810.91
2023-01-03T18:38:43.915Z,144795.13
2023-01-03T18:41:16.895Z,144829.09
2023-01-03T18:43:43.752Z,144812.09
2023-01-03T18:46:17.668Z,144806.06
2023-01-03T18:48:44.538Z,144779.41
2023-01-03T18:51:15.641Z,144772.09
2023-01-03T18:53:47.467Z,144774.56
2023-01-03T18:56:37.403Z,144751.53
2023-01-03T18:59:06.859Z,144753.94
2023-01-03T19:01:34.020Z,144745.44
2023-01-03T19:04:01.116Z,144724.88
2023-01-03T19:06:33.607Z,144728.50
2023-01-03T19:09:02.587Z,144735.75
2023-01-03T19:11:31.789Z,144796.31
2023-01-03T19:14:00.998Z,144790.28
2023-01-03T19:16:32.117Z,144775.75
2023-01-03T19:18:59.547Z,144816.97
2023-01-03T19:21:30.112Z,144819.41
2023-01-03T19:24:19.697Z,144848.47
2023-01-03T19:27:04.086Z,144816.97
2023-01-03T19:29:36.931Z,144806.06
2023-01-03T19:32:11.774Z,144804.81
2023-01-03T19:34:38.603Z,144803.63
2023-01-03T19:37:05.467Z,144798.78
2023-01-03T19:39:37.454Z,144804.81
2023-01-03T19:42:24.333Z,144818.16
2023-01-03T19:44:52.847Z,144801.22
2023-01-03T19:47:22.667Z,144821.81
2023-01-03T19:49:49.526Z,144831.50
2023-01-03T19:52:16.866Z,144821.81
2023-01-03T19:54:44.320Z,144799.97
2023-01-03T19:57:21.423Z,144795.13
2023-01-03T19:59:53.224Z,144807.25
2023-01-03T20:02:32.261Z,144807.25
2023-01-03T20:04:59.611Z,144791.47
2023-01-03T20:07:26.563Z,144796.31
2023-01-03T20:09:53.516Z,144793.94
2023-01-03T20:12:23.770Z,144784.25
2023-01-03T20:14:51.382Z,144804.81
2023-01-03T20:17:22.346Z,144813.31
2023-01-03T20:19:49.808Z,144820.59
2023-01-03T20:22:44.953Z,144841.19
2023-01-03T20:25:04.693Z,144821.81
2023-01-03T20:27:31.528Z,144810.91
2023-01-03T20:29:58.377Z,144810.91
2023-01-03T20:32:25.268Z,144816.97
2023-01-03T20:34:52.152Z,144803.63
2023-01-03T20:37:25.889Z,144787.88
2023-01-03T20:39:53.116Z,144801.22
2023-01-03T20:42:24.660Z,144806.06
2023-01-03T20:44:51.607Z,144839.97
2023-01-03T20:47:21.247Z,144866.66
2023-01-03T20:49:48.425Z,144864.22
2023-01-03T20:52:16.283Z,144871.50
2023-01-03T20:54:43.634Z,144890.88
2023-01-03T20:57:14.601Z,144863.00
2023-01-03T20:59:41.820Z,144835.13
2023-01-03T21:02:12.311Z,144847.28
2023-01-03T21:04:39.552Z,144814.50
2023-01-03T21:07:11.540Z,144832.69
2023-01-03T21:09:38.870Z,144831.50
2023-01-03T21:12:05.762Z,144856.97
2023-01-03T21:14:32.640Z,144839.97
2023-01-03T21:16:59.565Z,144854.50
2023-01-03T21:19:26.539Z,144820.59
2023-01-03T21:21:54.195Z,144806.06
2023-01-03T21:24:22.673Z,144816.97
2023-01-03T21:26:49.630Z,144823.00
2023-01-03T21:29:16.538Z,144816.97
2023-01-03T21:31:43.550Z,144801.22
2023-01-03T21:34:16.377Z,144806.06
2023-01-03T21:36:43.349Z,144776.94
2023-01-03T21:39:10.263Z,144789.09
2023-01-03T21:41:57.163Z,144764.88
2023-01-03T21:44:24.082Z,144740.59
2023-01-03T21:46:50.892Z,144752.72
2023-01-03T21:49:17.825Z,144759.97
2023-01-03T21:51:44.732Z,144764.88
2023-01-03T21:54:11.548Z,144767.25
2023-01-03T21:56:45.179Z,144738.19
2023-01-03T21:59:16.001Z,144718.78
2023-01-03T22:02:02.782Z,144718.78
2023-01-03T22:04:30.182Z,144757.56
2023-01-03T22:07:00.409Z,144728.50
2023-01-03T22:09:46.410Z,144604.88
2023-01-03T22:12:15.551Z,144718.78
2023-01-03T22:14:43.412Z,144715.19
2023-01-03T22:17:10.224Z,144716.38
2023-01-03T22:19:37.094Z,144724.88
2023-01-03T22:22:04.850Z,144704.25
2023-01-03T22:24:31.773Z,144707.91
2023-01-03T22:26:58.632Z,144695.75
2023-01-03T22:29:25.684Z,144733.34
2023-01-03T22:31:52.634Z,144704.25
2023-01-03T22:34:19.509Z,144738.19
2023-01-03T22:36:46.383Z,144705.44
2023-01-03T22:39:13.272Z,144707.91
2023-01-03T22:41:40.060Z,144700.59
2023-01-03T22:44:06.953Z,144578.22
2023-01-03T22:46:33.805Z,144684.88
2023-01-03T22:49:00.681Z,144665.47
2023-01-03T22:51:27.542Z,144669.06
2023-01-03T22:53:54.402Z,144663.03
2023-01-03T22:56:21.233Z,144650.91
2023-01-03T22:58:48.070Z,144655.78
2023-01-03T23:01:16.211Z,144652.13
2023-01-03T23:03:47.160Z,144655.78
2023-01-03T23:06:15.610Z,144646.06
2023-01-03T23:08:42.555Z,144636.38
2023-01-03T23:11:34.219Z,144655.78
2023-01-03T23:14:03.206Z,144633.97
2023-01-03T23:16:31.095Z,144652.13
2023-01-03T23:18:58.428Z,144682.44
2023-01-03T23:21:25.236Z,144653.34
2023-01-03T23:23:52.096Z,144655.78
2023-01-03T23:26:18.923Z,144675.19
2023-01-03T23:28:45.731Z,144650.91
2023-01-03T23:31:12.572Z,144648.50
2023-01-03T23:33:39.430Z,144663.03
2023-01-03T23:36:07.418Z,144690.94
2023-01-03T23:38:34.255Z,144697.00
2023-01-03T23:41:05.692Z,144701.84
2023-01-03T23:43:33.070Z,144713.94
2023-01-03T23:45:59.909Z,144718.78
2023-01-03T23:48:26.880Z,144733.34
2023-01-03T23:50:53.832Z,144727.28
2023-01-03T23:53:21.532Z,144722.44
2023-01-03T23:55:48.646Z,144721.22
2023-01-03T23:58:15.472Z,144718.78
